sensor_id;sensor_type;location;lat;lon;timestamp;P1;durP1;ratioP1;P2;durP2;ratioP2
20251;SDS011;10284;58.364;15.550;2023-02-28T00:00:41;2.63;;;1.65;;
20251;SDS011;10284;58.364;15.550;2023-02-28T00:03:08;2.10;;;1.38;;
20251;SDS011;10284;58.364;15.550;2023-02-28T00:05:33;1.55;;;1.40;;
20251;SDS011;10284;58.364;15.550;2023-02-28T00:07:59;1.60;;;1.17;;
20251;SDS011;10284;58.364;15.550;2023-02-28T00:10:26;2.20;;;1.40;;
20251;SDS011;10284;58.364;15.550;2023-02-28T00:12:53;2.45;;;1.40;;
20251;SDS011;10284;58.364;15.550;2023-02-28T00:15:21;3.17;;;1.60;;
20251;SDS011;10284;58.364;15.550;2023-02-28T00:17:48;3.22;;;1.50;;
20251;SDS011;10284;58.364;15.550;2023-02-28T00:20:13;2.28;;;1.58;;
20251;SDS011;10284;58.364;15.550;2023-02-28T00:22:40;2.67;;;1.42;;
20251;SDS011;10284;58.364;15.550;2023-02-28T00:25:11;2.28;;;1.33;;
20251;SDS011;10284;58.364;15.550;2023-02-28T00:27:37;1.55;;;1.20;;
20251;SDS011;10284;58.364;15.550;2023-02-28T00:30:04;2.53;;;1.42;;
20251;SDS011;10284;58.364;15.550;2023-02-28T00:32:31;2.75;;;1.40;;
20251;SDS011;10284;58.364;15.550;2023-02-28T00:34:56;1.83;;;1.42;;
20251;SDS011;10284;58.364;15.550;2023-02-28T00:37:22;2.63;;;1.40;;
20251;SDS011;10284;58.364;15.550;2023-02-28T00:39:48;2.05;;;1.40;;
20251;SDS011;10284;58.364;15.550;2023-02-28T00:42:13;2.28;;;1.40;;
20251;SDS011;10284;58.364;15.550;2023-02-28T00:44:38;1.70;;;1.30;;
20251;SDS011;10284;58.364;15.550;2023-02-28T00:47:04;1.98;;;1.45;;
20251;SDS011;10284;58.364;15.550;2023-02-28T00:49:30;1.35;;;1.05;;
20251;SDS011;10284;58.364;15.550;2023-02-28T00:51:55;1.88;;;1.27;;
20251;SDS011;10284;58.364;15.550;2023-02-28T00:54:21;3.33;;;1.60;;
20251;SDS011;10284;58.364;15.550;2023-02-28T00:56:47;2.53;;;1.52;;
20251;SDS011;10284;58.364;15.550;2023-02-28T00:59:13;1.88;;;1.30;;
20251;SDS011;10284;58.364;15.550;2023-02-28T01:01:39;1.88;;;1.40;;
20251;SDS011;10284;58.364;15.550;2023-02-28T01:04:05;1.90;;;1.42;;
20251;SDS011;10284;58.364;15.550;2023-02-28T01:06:31;2.67;;;1.48;;
20251;SDS011;10284;58.364;15.550;2023-02-28T01:08:57;2.58;;;1.60;;
20251;SDS011;10284;58.364;15.550;2023-02-28T01:11:23;2.83;;;1.40;;
20251;SDS011;10284;58.364;15.550;2023-02-28T01:13:48;2.28;;;1.17;;
20251;SDS011;10284;58.364;15.550;2023-02-28T01:16:14;1.67;;;1.17;;
20251;SDS011;10284;58.364;15.550;2023-02-28T01:18:39;1.23;;;1.02;;
20251;SDS011;10284;58.364;15.550;2023-02-28T01:21:06;1.35;;;1.15;;
20251;SDS011;10284;58.364;15.550;2023-02-28T01:23:32;2.22;;;1.35;;
20251;SDS011;10284;58.364;15.550;2023-02-28T01:26:03;2.97;;;1.27;;
20251;SDS011;10284;58.364;15.550;2023-02-28T01:28:39;2.10;;;1.20;;
20251;SDS011;10284;58.364;15.550;2023-02-28T01:31:04;2.65;;;1.30;;
20251;SDS011;10284;58.364;15.550;2023-02-28T01:33:30;1.63;;;1.30;;
20251;SDS011;10284;58.364;15.550;2023-02-28T01:36:00;1.98;;;1.25;;
20251;SDS011;10284;58.364;15.550;2023-02-28T01:38:26;1.58;;;1.25;;
20251;SDS011;10284;58.364;15.550;2023-02-28T01:40:52;1.20;;;1.02;;
20251;SDS011;10284;58.364;15.550;2023-02-28T01:43:22;3.13;;;1.50;;
20251;SDS011;10284;58.364;15.550;2023-02-28T01:45:48;3.22;;;1.40;;
20251;SDS011;10284;58.364;15.550;2023-02-28T01:48:13;2.47;;;1.20;;
20251;SDS011;10284;58.364;15.550;2023-02-28T01:50:40;1.45;;;1.10;;
20251;SDS011;10284;58.364;15.550;2023-02-28T01:53:10;1.10;;;1.00;;
20251;SDS011;10284;58.364;15.550;2023-02-28T01:55:40;1.70;;;1.20;;
20251;SDS011;10284;58.364;15.550;2023-02-28T01:58:06;1.60;;;1.25;;
20251;SDS011;10284;58.364;15.550;2023-02-28T02:00:32;1.45;;;1.17;;
20251;SDS011;10284;58.364;15.550;2023-02-28T02:02:58;1.85;;;1.65;;
20251;SDS011;10284;58.364;15.550;2023-02-28T02:05:27;1.50;;;1.25;;
20251;SDS011;10284;58.364;15.550;2023-02-28T02:07:56;1.83;;;1.23;;
20251;SDS011;10284;58.364;15.550;2023-02-28T02:10:29;1.40;;;1.02;;
20251;SDS011;10284;58.364;15.550;2023-02-28T02:15:57;1.25;;;1.00;;
20251;SDS011;10284;58.364;15.550;2023-02-28T02:27:54;2.17;;;1.10;;
20251;SDS011;10284;58.364;15.550;2023-02-28T02:33:28;1.30;;;1.13;;
20251;SDS011;10284;58.364;15.550;2023-02-28T02:36:10;2.10;;;1.23;;
20251;SDS011;10284;58.364;15.550;2023-02-28T02:41:58;1.20;;;1.00;;
20251;SDS011;10284;58.364;15.550;2023-02-28T02:44:28;1.73;;;1.00;;
20251;SDS011;10284;58.364;15.550;2023-02-28T02:46:58;1.58;;;0.90;;
20251;SDS011;10284;58.364;15.550;2023-02-28T02:49:36;2.95;;;1.10;;
20251;SDS011;10284;58.364;15.550;2023-02-28T02:52:03;2.15;;;1.48;;
20251;SDS011;10284;58.364;15.550;2023-02-28T02:54:38;1.08;;;0.90;;
20251;SDS011;10284;58.364;15.550;2023-02-28T02:59:33;1.20;;;1.10;;
20251;SDS011;10284;58.364;15.550;2023-02-28T03:02:01;2.55;;;1.00;;
20251;SDS011;10284;58.364;15.550;2023-02-28T03:04:30;1.48;;;1.10;;
20251;SDS011;10284;58.364;15.550;2023-02-28T03:06:58;2.30;;;1.00;;
20251;SDS011;10284;58.364;15.550;2023-02-28T03:09:24;1.60;;;1.00;;
20251;SDS011;10284;58.364;15.550;2023-02-28T03:11:51;3.22;;;1.00;;
20251;SDS011;10284;58.364;15.550;2023-02-28T03:19:54;1.13;;;1.02;;
20251;SDS011;10284;58.364;15.550;2023-02-28T03:27:41;1.20;;;1.10;;
20251;SDS011;10284;58.364;15.550;2023-02-28T03:35:39;1.98;;;1.25;;
20251;SDS011;10284;58.364;15.550;2023-02-28T03:38:09;1.55;;;1.38;;
20251;SDS011;10284;58.364;15.550;2023-02-28T03:40:39;1.70;;;1.10;;
20251;SDS011;10284;58.364;15.550;2023-02-28T03:43:09;1.30;;;1.17;;
20251;SDS011;10284;58.364;15.550;2023-02-28T03:45:38;1.63;;;1.25;;
20251;SDS011;10284;58.364;15.550;2023-02-28T03:48:16;2.17;;;0.98;;
20251;SDS011;10284;58.364;15.550;2023-02-28T03:50:47;1.50;;;1.20;;
20251;SDS011;10284;58.364;15.550;2023-02-28T03:55:59;1.30;;;1.20;;
20251;SDS011;10284;58.364;15.550;2023-02-28T03:58:39;1.42;;;1.00;;
20251;SDS011;10284;58.364;15.550;2023-02-28T04:01:45;1.65;;;1.20;;
20251;SDS011;10284;58.364;15.550;2023-02-28T04:04:10;1.05;;;1.02;;
20251;SDS011;10284;58.364;15.550;2023-02-28T04:06:37;2.72;;;1.63;;
20251;SDS011;10284;58.364;15.550;2023-02-28T04:09:03;1.20;;;1.08;;
20251;SDS011;10284;58.364;15.550;2023-02-28T04:11:34;1.52;;;1.13;;
20251;SDS011;10284;58.364;15.550;2023-02-28T04:14:04;2.33;;;1.17;;
20251;SDS011;10284;58.364;15.550;2023-02-28T04:16:31;1.45;;;1.17;;
20251;SDS011;10284;58.364;15.550;2023-02-28T04:18:57;2.17;;;1.20;;
20251;SDS011;10284;58.364;15.550;2023-02-28T04:21:32;1.70;;;1.20;;
20251;SDS011;10284;58.364;15.550;2023-02-28T04:23:59;1.27;;;1.17;;
20251;SDS011;10284;58.364;15.550;2023-02-28T04:26:35;2.17;;;1.38;;
20251;SDS011;10284;58.364;15.550;2023-02-28T04:29:02;1.80;;;1.48;;
20251;SDS011;10284;58.364;15.550;2023-02-28T04:31:28;1.40;;;1.30;;
20251;SDS011;10284;58.364;15.550;2023-02-28T04:33:54;1.25;;;1.15;;
20251;SDS011;10284;58.364;15.550;2023-02-28T04:36:19;1.40;;;1.30;;
20251;SDS011;10284;58.364;15.550;2023-02-28T04:38:45;1.80;;;1.30;;
20251;SDS011;10284;58.364;15.550;2023-02-28T04:41:12;3.00;;;1.30;;
20251;SDS011;10284;58.364;15.550;2023-02-28T04:43:37;3.22;;;1.48;;
20251;SDS011;10284;58.364;15.550;2023-02-28T04:46:04;1.38;;;1.10;;
20251;SDS011;10284;58.364;15.550;2023-02-28T04:48:31;2.53;;;1.20;;
20251;SDS011;10284;58.364;15.550;2023-02-28T04:51:01;3.00;;;1.38;;
20251;SDS011;10284;58.364;15.550;2023-02-28T04:53:28;3.03;;;1.52;;
20251;SDS011;10284;58.364;15.550;2023-02-28T04:55:54;2.17;;;1.42;;
20251;SDS011;10284;58.364;15.550;2023-02-28T04:58:20;2.30;;;1.40;;
20251;SDS011;10284;58.364;15.550;2023-02-28T05:00:48;2.35;;;1.45;;
20251;SDS011;10284;58.364;15.550;2023-02-28T05:03:13;1.90;;;1.30;;
20251;SDS011;10284;58.364;15.550;2023-02-28T05:05:39;1.30;;;1.20;;
20251;SDS011;10284;58.364;15.550;2023-02-28T05:08:04;2.08;;;1.17;;
20251;SDS011;10284;58.364;15.550;2023-02-28T05:10:30;2.58;;;1.30;;
20251;SDS011;10284;58.364;15.550;2023-02-28T05:12:56;1.30;;;1.15;;
20251;SDS011;10284;58.364;15.550;2023-02-28T05:15:21;1.42;;;1.20;;
20251;SDS011;10284;58.364;15.550;2023-02-28T05:17:47;1.55;;;1.20;;
20251;SDS011;10284;58.364;15.550;2023-02-28T05:20:12;2.35;;;1.45;;
20251;SDS011;10284;58.364;15.550;2023-02-28T05:22:38;2.08;;;1.42;;
20251;SDS011;10284;58.364;15.550;2023-02-28T05:25:04;1.58;;;1.38;;
20251;SDS011;10284;58.364;15.550;2023-02-28T05:27:30;1.85;;;1.38;;
20251;SDS011;10284;58.364;15.550;2023-02-28T05:29:56;3.75;;;1.90;;
20251;SDS011;10284;58.364;15.550;2023-02-28T05:32:22;2.08;;;1.35;;
20251;SDS011;10284;58.364;15.550;2023-02-28T05:34:48;1.52;;;1.42;;
20251;SDS011;10284;58.364;15.550;2023-02-28T05:37:14;1.83;;;1.45;;
20251;SDS011;10284;58.364;15.550;2023-02-28T05:39:40;1.95;;;1.40;;
20251;SDS011;10284;58.364;15.550;2023-02-28T05:42:06;2.22;;;1.40;;
20251;SDS011;10284;58.364;15.550;2023-02-28T05:44:33;1.85;;;1.20;;
20251;SDS011;10284;58.364;15.550;2023-02-28T05:46:58;1.40;;;1.30;;
20251;SDS011;10284;58.364;15.550;2023-02-28T05:49:24;2.08;;;1.50;;
20251;SDS011;10284;58.364;15.550;2023-02-28T05:51:49;2.03;;;1.20;;
20251;SDS011;10284;58.364;15.550;2023-02-28T05:54:15;1.73;;;1.40;;
20251;SDS011;10284;58.364;15.550;2023-02-28T05:56:40;2.33;;;1.50;;
20251;SDS011;10284;58.364;15.550;2023-02-28T05:59:09;2.53;;;1.30;;
20251;SDS011;10284;58.364;15.550;2023-02-28T06:01:35;1.75;;;1.40;;
20251;SDS011;10284;58.364;15.550;2023-02-28T06:04:03;1.75;;;1.30;;
20251;SDS011;10284;58.364;15.550;2023-02-28T06:06:29;1.75;;;1.40;;
20251;SDS011;10284;58.364;15.550;2023-02-28T06:08:55;3.33;;;1.65;;
20251;SDS011;10284;58.364;15.550;2023-02-28T06:11:21;1.95;;;1.70;;
20251;SDS011;10284;58.364;15.550;2023-02-28T06:13:52;3.67;;;1.63;;
20251;SDS011;10284;58.364;15.550;2023-02-28T06:16:20;1.40;;;1.30;;
20251;SDS011;10284;58.364;15.550;2023-02-28T06:18:45;1.20;;;1.10;;
20251;SDS011;10284;58.364;15.550;2023-02-28T06:21:11;2.10;;;1.60;;
20251;SDS011;10284;58.364;15.550;2023-02-28T06:23:37;2.28;;;1.60;;
20251;SDS011;10284;58.364;15.550;2023-02-28T06:26:03;1.50;;;1.40;;
20251;SDS011;10284;58.364;15.550;2023-02-28T06:28:28;3.13;;;1.80;;
20251;SDS011;10284;58.364;15.550;2023-02-28T06:30:54;2.00;;;1.63;;
20251;SDS011;10284;58.364;15.550;2023-02-28T06:33:19;1.48;;;1.38;;
20251;SDS011;10284;58.364;15.550;2023-02-28T06:35:46;3.08;;;1.60;;
20251;SDS011;10284;58.364;15.550;2023-02-28T06:38:12;3.25;;;1.50;;
20251;SDS011;10284;58.364;15.550;2023-02-28T06:40:37;1.75;;;1.60;;
20251;SDS011;10284;58.364;15.550;2023-02-28T06:43:03;2.35;;;1.40;;
20251;SDS011;10284;58.364;15.550;2023-02-28T06:45:28;2.60;;;1.55;;
20251;SDS011;10284;58.364;15.550;2023-02-28T06:47:54;2.40;;;1.60;;
20251;SDS011;10284;58.364;15.550;2023-02-28T06:50:19;1.55;;;1.40;;
20251;SDS011;10284;58.364;15.550;2023-02-28T06:52:45;2.50;;;1.33;;
20251;SDS011;10284;58.364;15.550;2023-02-28T06:55:11;1.83;;;1.20;;
20251;SDS011;10284;58.364;15.550;2023-02-28T06:57:36;1.65;;;1.35;;
20251;SDS011;10284;58.364;15.550;2023-02-28T07:00:05;3.25;;;1.42;;
20251;SDS011;10284;58.364;15.550;2023-02-28T07:02:34;1.67;;;1.52;;
20251;SDS011;10284;58.364;15.550;2023-02-28T07:05:00;1.77;;;1.50;;
20251;SDS011;10284;58.364;15.550;2023-02-28T07:07:26;3.33;;;1.35;;
20251;SDS011;10284;58.364;15.550;2023-02-28T07:09:51;2.85;;;1.58;;
20251;SDS011;10284;58.364;15.550;2023-02-28T07:12:17;3.45;;;1.40;;
20251;SDS011;10284;58.364;15.550;2023-02-28T07:14:42;1.70;;;1.48;;
20251;SDS011;10284;58.364;15.550;2023-02-28T07:17:08;2.03;;;1.30;;
20251;SDS011;10284;58.364;15.550;2023-02-28T07:19:35;2.28;;;1.75;;
20251;SDS011;10284;58.364;15.550;2023-02-28T07:22:01;2.05;;;1.50;;
20251;SDS011;10284;58.364;15.550;2023-02-28T07:24:27;1.95;;;1.20;;
20251;SDS011;10284;58.364;15.550;2023-02-28T07:26:54;1.50;;;1.30;;
20251;SDS011;10284;58.364;15.550;2023-02-28T07:29:20;1.88;;;1.58;;
20251;SDS011;10284;58.364;15.550;2023-02-28T07:31:45;1.33;;;1.20;;
20251;SDS011;10284;58.364;15.550;2023-02-28T07:34:11;1.50;;;1.33;;
20251;SDS011;10284;58.364;15.550;2023-02-28T07:36:37;2.05;;;1.20;;
20251;SDS011;10284;58.364;15.550;2023-02-28T07:39:03;3.63;;;1.58;;
20251;SDS011;10284;58.364;15.550;2023-02-28T07:41:29;1.40;;;1.02;;
20251;SDS011;10284;58.364;15.550;2023-02-28T07:43:57;1.88;;;1.30;;
20251;SDS011;10284;58.364;15.550;2023-02-28T07:46:24;1.80;;;1.30;;
20251;SDS011;10284;58.364;15.550;2023-02-28T07:48:50;2.08;;;1.20;;
20251;SDS011;10284;58.364;15.550;2023-02-28T07:51:16;2.08;;;1.35;;
20251;SDS011;10284;58.364;15.550;2023-02-28T07:53:41;1.95;;;1.30;;
20251;SDS011;10284;58.364;15.550;2023-02-28T07:56:07;3.22;;;1.20;;
20251;SDS011;10284;58.364;15.550;2023-02-28T07:58:32;1.35;;;1.17;;
20251;SDS011;10284;58.364;15.550;2023-02-28T08:01:04;2.00;;;1.30;;
20251;SDS011;10284;58.364;15.550;2023-02-28T08:03:30;2.05;;;1.20;;
20251;SDS011;10284;58.364;15.550;2023-02-28T08:05:56;2.78;;;1.40;;
20251;SDS011;10284;58.364;15.550;2023-02-28T08:08:21;2.00;;;1.35;;
20251;SDS011;10284;58.364;15.550;2023-02-28T08:10:46;2.78;;;1.27;;
20251;SDS011;10284;58.364;15.550;2023-02-28T08:13:12;1.95;;;1.33;;
20251;SDS011;10284;58.364;15.550;2023-02-28T08:15:37;2.00;;;1.20;;
20251;SDS011;10284;58.364;15.550;2023-02-28T08:18:03;2.85;;;1.42;;
20251;SDS011;10284;58.364;15.550;2023-02-28T08:20:28;1.63;;;1.10;;
20251;SDS011;10284;58.364;15.550;2023-02-28T08:22:54;2.28;;;1.13;;
20251;SDS011;10284;58.364;15.550;2023-02-28T08:25:19;1.33;;;1.23;;
20251;SDS011;10284;58.364;15.550;2023-02-28T08:27:46;2.13;;;1.08;;
20251;SDS011;10284;58.364;15.550;2023-02-28T08:30:12;2.28;;;1.10;;
20251;SDS011;10284;58.364;15.550;2023-02-28T08:32:39;1.77;;;1.05;;
20251;SDS011;10284;58.364;15.550;2023-02-28T08:35:04;1.98;;;1.00;;
20251;SDS011;10284;58.364;15.550;2023-02-28T08:37:30;1.35;;;1.10;;
20251;SDS011;10284;58.364;15.550;2023-02-28T08:39:56;2.67;;;1.00;;
20251;SDS011;10284;58.364;15.550;2023-02-28T08:42:21;1.10;;;1.00;;
20251;SDS011;10284;58.364;15.550;2023-02-28T08:44:46;1.40;;;0.90;;
20251;SDS011;10284;58.364;15.550;2023-02-28T08:47:12;1.30;;;1.02;;
20251;SDS011;10284;58.364;15.550;2023-02-28T08:49:37;1.83;;;1.00;;
20251;SDS011;10284;58.364;15.550;2023-02-28T08:52:03;1.30;;;1.10;;
20251;SDS011;10284;58.364;15.550;2023-02-28T08:54:28;1.38;;;0.98;;
20251;SDS011;10284;58.364;15.550;2023-02-28T08:56:56;1.98;;;1.10;;
20251;SDS011;10284;58.364;15.550;2023-02-28T08:59:22;1.30;;;1.00;;
20251;SDS011;10284;58.364;15.550;2023-02-28T09:01:47;1.52;;;1.20;;
20251;SDS011;10284;58.364;15.550;2023-02-28T09:04:13;1.00;;;0.90;;
20251;SDS011;10284;58.364;15.550;2023-02-28T09:06:38;2.35;;;1.05;;
20251;SDS011;10284;58.364;15.550;2023-02-28T09:09:04;2.45;;;1.40;;
20251;SDS011;10284;58.364;15.550;2023-02-28T09:11:31;1.65;;;1.20;;
20251;SDS011;10284;58.364;15.550;2023-02-28T09:13:57;2.03;;;1.20;;
20251;SDS011;10284;58.364;15.550;2023-02-28T09:16:24;1.90;;;1.48;;
20251;SDS011;10284;58.364;15.550;2023-02-28T09:18:49;1.15;;;1.05;;
20251;SDS011;10284;58.364;15.550;2023-02-28T09:21:15;1.90;;;1.10;;
20251;SDS011;10284;58.364;15.550;2023-02-28T09:23:43;2.38;;;1.00;;
20251;SDS011;10284;58.364;15.550;2023-02-28T09:26:13;2.28;;;1.00;;
20251;SDS011;10284;58.364;15.550;2023-02-28T09:28:42;2.63;;;1.38;;
20251;SDS011;10284;58.364;15.550;2023-02-28T09:31:11;1.88;;;1.00;;
20251;SDS011;10284;58.364;15.550;2023-02-28T09:33:38;1.05;;;0.90;;
20251;SDS011;10284;58.364;15.550;2023-02-28T09:36:04;1.83;;;1.30;;
20251;SDS011;10284;58.364;15.550;2023-02-28T09:38:29;1.42;;;0.90;;
20251;SDS011;10284;58.364;15.550;2023-02-28T09:40:56;2.03;;;1.00;;
20251;SDS011;10284;58.364;15.550;2023-02-28T09:43:28;2.35;;;1.10;;
20251;SDS011;10284;58.364;15.550;2023-02-28T09:48:51;0.95;;;0.85;;
20251;SDS011;10284;58.364;15.550;2023-02-28T09:54:20;1.10;;;1.00;;
20251;SDS011;10284;58.364;15.550;2023-02-28T09:56:52;0.80;;;0.80;;
20251;SDS011;10284;58.364;15.550;2023-02-28T09:59:29;1.05;;;0.75;;
20251;SDS011;10284;58.364;15.550;2023-02-28T10:02:19;2.25;;;0.95;;
20251;SDS011;10284;58.364;15.550;2023-02-28T10:05:11;0.95;;;0.77;;
20251;SDS011;10284;58.364;15.550;2023-02-28T10:07:46;1.15;;;0.80;;
20251;SDS011;10284;58.364;15.550;2023-02-28T10:12:51;1.00;;;0.80;;
20251;SDS011;10284;58.364;15.550;2023-02-28T10:15:19;1.88;;;1.00;;
20251;SDS011;10284;58.364;15.550;2023-02-28T10:17:48;1.77;;;1.00;;
20251;SDS011;10284;58.364;15.550;2023-02-28T10:20:20;1.98;;;0.60;;
20251;SDS011;10284;58.364;15.550;2023-02-28T10:22:53;0.70;;;0.70;;
20251;SDS011;10284;58.364;15.550;2023-02-28T10:25:24;1.25;;;1.00;;
20251;SDS011;10284;58.364;15.550;2023-02-28T10:28:04;0.88;;;0.68;;
20251;SDS011;10284;58.364;15.550;2023-02-28T10:30:38;2.78;;;0.70;;
20251;SDS011;10284;58.364;15.550;2023-02-28T10:33:05;0.80;;;0.80;;
20251;SDS011;10284;58.364;15.550;2023-02-28T10:35:33;0.75;;;0.68;;
20251;SDS011;10284;58.364;15.550;2023-02-28T10:37:59;3.03;;;0.60;;
20251;SDS011;10284;58.364;15.550;2023-02-28T10:40:33;0.88;;;0.60;;
20251;SDS011;10284;58.364;15.550;2023-02-28T10:45:38;1.10;;;0.55;;
20251;SDS011;10284;58.364;15.550;2023-02-28T10:48:05;0.93;;;0.70;;
20251;SDS011;10284;58.364;15.550;2023-02-28T10:50:52;1.08;;;0.60;;
20251;SDS011;10284;58.364;15.550;2023-02-28T10:56:02;0.80;;;0.60;;
20251;SDS011;10284;58.364;15.550;2023-02-28T11:01:18;2.85;;;1.40;;
20251;SDS011;10284;58.364;15.550;2023-02-28T11:03:46;1.90;;;1.20;;
20251;SDS011;10284;58.364;15.550;2023-02-28T11:06:21;1.45;;;1.35;;
20251;SDS011;10284;58.364;15.550;2023-02-28T11:08:53;3.15;;;1.00;;
20251;SDS011;10284;58.364;15.550;2023-02-28T11:11:24;0.80;;;0.73;;
20251;SDS011;10284;58.364;15.550;2023-02-28T11:13:54;2.35;;;0.80;;
20251;SDS011;10284;58.364;15.550;2023-02-28T11:16:21;1.33;;;0.70;;
20251;SDS011;10284;58.364;15.550;2023-02-28T11:18:51;0.70;;;0.68;;
20251;SDS011;10284;58.364;15.550;2023-02-28T11:21:19;1.95;;;0.70;;
20251;SDS011;10284;58.364;15.550;2023-02-28T11:23:47;0.85;;;0.65;;
20251;SDS011;10284;58.364;15.550;2023-02-28T11:26:14;4.43;;;0.80;;
20251;SDS011;10284;58.364;15.550;2023-02-28T11:28:41;1.50;;;0.80;;
20251;SDS011;10284;58.364;15.550;2023-02-28T11:36:23;1.95;;;1.10;;
20251;SDS011;10284;58.364;15.550;2023-02-28T11:38:59;2.50;;;1.45;;
20251;SDS011;10284;58.364;15.550;2023-02-28T11:46:41;4.32;;;1.45;;
20251;SDS011;10284;58.364;15.550;2023-02-28T11:52:35;3.35;;;1.17;;
20251;SDS011;10284;58.364;15.550;2023-02-28T11:57:42;1.77;;;1.10;;
20251;SDS011;10284;58.364;15.550;2023-02-28T12:03:22;2.08;;;1.35;;
20251;SDS011;10284;58.364;15.550;2023-02-28T12:14:39;0.82;;;0.70;;
20251;SDS011;10284;58.364;15.550;2023-02-28T12:20:11;2.85;;;0.93;;
20251;SDS011;10284;58.364;15.550;2023-02-28T12:28:31;2.28;;;1.10;;
20251;SDS011;10284;58.364;15.550;2023-02-28T12:31:01;2.28;;;1.00;;
20251;SDS011;10284;58.364;15.550;2023-02-28T12:33:33;1.73;;;1.00;;
20251;SDS011;10284;58.364;15.550;2023-02-28T12:36:01;1.50;;;0.93;;
20251;SDS011;10284;58.364;15.550;2023-02-28T12:38:34;2.40;;;1.10;;
20251;SDS011;10284;58.364;15.550;2023-02-28T12:41:04;2.35;;;1.02;;
20251;SDS011;10284;58.364;15.550;2023-02-28T12:49:00;1.15;;;1.02;;
20251;SDS011;10284;58.364;15.550;2023-02-28T12:51:30;1.05;;;0.80;;
20251;SDS011;10284;58.364;15.550;2023-02-28T12:56:47;0.80;;;0.65;;
20251;SDS011;10284;58.364;15.550;2023-02-28T13:05:05;0.60;;;0.32;;
20251;SDS011;10284;58.364;15.550;2023-02-28T13:10:02;0.60;;;0.60;;
20251;SDS011;10284;58.364;15.550;2023-02-28T13:12:29;1.48;;;0.50;;
20251;SDS011;10284;58.364;15.550;2023-02-28T13:15:17;1.23;;;0.57;;
20251;SDS011;10284;58.364;15.550;2023-02-28T13:17:51;1.45;;;0.60;;
20251;SDS011;10284;58.364;15.550;2023-02-28T13:20:19;1.60;;;0.60;;
20251;SDS011;10284;58.364;15.550;2023-02-28T13:22:50;1.80;;;0.80;;
20251;SDS011;10284;58.364;15.550;2023-02-28T13:27:58;2.30;;;0.73;;
20251;SDS011;10284;58.364;15.550;2023-02-28T13:33:37;0.75;;;0.57;;
20251;SDS011;10284;58.364;15.550;2023-02-28T13:36:23;0.73;;;0.43;;
20251;SDS011;10284;58.364;15.550;2023-02-28T13:38:52;0.50;;;0.50;;
20251;SDS011;10284;58.364;15.550;2023-02-28T13:51:53;0.40;;;0.40;;
20251;SDS011;10284;58.364;15.550;2023-02-28T13:54:29;0.40;;;0.40;;
20251;SDS011;10284;58.364;15.550;2023-02-28T13:57:12;0.82;;;0.50;;
20251;SDS011;10284;58.364;15.550;2023-02-28T13:59:50;0.52;;;0.50;;
20251;SDS011;10284;58.364;15.550;2023-02-28T14:02:31;1.38;;;0.43;;
20251;SDS011;10284;58.364;15.550;2023-02-28T14:05:21;0.47;;;0.40;;
20251;SDS011;10284;58.364;15.550;2023-02-28T14:07:52;0.88;;;0.50;;
20251;SDS011;10284;58.364;15.550;2023-02-28T14:10:26;1.17;;;0.43;;
20251;SDS011;10284;58.364;15.550;2023-02-28T14:17:59;3.15;;;0.80;;
20251;SDS011;10284;58.364;15.550;2023-02-28T14:20:27;0.50;;;0.50;;
20251;SDS011;10284;58.364;15.550;2023-02-28T14:25:39;2.45;;;0.75;;
20251;SDS011;10284;58.364;15.550;2023-02-28T14:31:07;1.53;;;0.77;;
20251;SDS011;10284;58.364;15.550;2023-02-28T14:33:57;0.75;;;0.70;;
20251;SDS011;10284;58.364;15.550;2023-02-28T14:36:37;2.70;;;0.70;;
20251;SDS011;10284;58.364;15.550;2023-02-28T14:39:05;1.13;;;0.93;;
20251;SDS011;10284;58.364;15.550;2023-02-28T14:41:39;0.80;;;0.80;;
20251;SDS011;10284;58.364;15.550;2023-02-28T14:44:13;1.25;;;0.80;;
20251;SDS011;10284;58.364;15.550;2023-02-28T14:46:49;2.75;;;0.80;;
20251;SDS011;10284;58.364;15.550;2023-02-28T14:49:29;0.93;;;0.75;;
20251;SDS011;10284;58.364;15.550;2023-02-28T14:52:23;0.70;;;0.70;;
20251;SDS011;10284;58.364;15.550;2023-02-28T14:54:58;2.45;;;1.02;;
20251;SDS011;10284;58.364;15.550;2023-02-28T14:57:29;2.50;;;1.17;;
20251;SDS011;10284;58.364;15.550;2023-02-28T15:00:00;1.05;;;1.00;;
20251;SDS011;10284;58.364;15.550;2023-02-28T15:02:30;1.48;;;0.90;;
20251;SDS011;10284;58.364;15.550;2023-02-28T15:05:00;1.83;;;0.88;;
20251;SDS011;10284;58.364;15.550;2023-02-28T15:07:34;1.33;;;0.80;;
20251;SDS011;10284;58.364;15.550;2023-02-28T15:12:51;1.40;;;1.00;;
20251;SDS011;10284;58.364;15.550;2023-02-28T15:15:17;1.27;;;0.90;;
20251;SDS011;10284;58.364;15.550;2023-02-28T15:17:49;1.02;;;0.90;;
20251;SDS011;10284;58.364;15.550;2023-02-28T15:20:15;2.25;;;0.90;;
20251;SDS011;10284;58.364;15.550;2023-02-28T15:22:41;1.65;;;0.90;;
20251;SDS011;10284;58.364;15.550;2023-02-28T15:25:09;4.28;;;0.80;;
20251;SDS011;10284;58.364;15.550;2023-02-28T15:27:41;1.20;;;0.80;;
20251;SDS011;10284;58.364;15.550;2023-02-28T15:30:17;0.80;;;0.80;;
20251;SDS011;10284;58.364;15.550;2023-02-28T15:33:19;1.23;;;0.82;;
20251;SDS011;10284;58.364;15.550;2023-02-28T15:35:46;3.20;;;1.10;;
20251;SDS011;10284;58.364;15.550;2023-02-28T15:38:26;3.53;;;1.25;;
20251;SDS011;10284;58.364;15.550;2023-02-28T15:40:53;2.15;;;1.00;;
20251;SDS011;10284;58.364;15.550;2023-02-28T15:48:30;2.15;;;0.80;;
20251;SDS011;10284;58.364;15.550;2023-02-28T15:51:13;2.90;;;0.88;;
20251;SDS011;10284;58.364;15.550;2023-02-28T15:53:56;1.45;;;0.90;;
20251;SDS011;10284;58.364;15.550;2023-02-28T15:56:33;1.40;;;0.88;;
20251;SDS011;10284;58.364;15.550;2023-02-28T15:59:03;1.45;;;0.80;;
20251;SDS011;10284;58.364;15.550;2023-02-28T16:01:35;3.28;;;1.02;;
20251;SDS011;10284;58.364;15.550;2023-02-28T16:04:06;1.20;;;0.73;;
20251;SDS011;10284;58.364;15.550;2023-02-28T16:09:14;2.67;;;1.02;;
20251;SDS011;10284;58.364;15.550;2023-02-28T16:11:42;3.05;;;1.30;;
20251;SDS011;10284;58.364;15.550;2023-02-28T16:14:15;4.25;;;1.70;;
20251;SDS011;10284;58.364;15.550;2023-02-28T16:16:43;5.32;;;2.40;;
20251;SDS011;10284;58.364;15.550;2023-02-28T16:19:10;3.70;;;1.80;;
20251;SDS011;10284;58.364;15.550;2023-02-28T16:21:35;1.58;;;1.10;;
20251;SDS011;10284;58.364;15.550;2023-02-28T16:24:01;1.15;;;0.93;;
20251;SDS011;10284;58.364;15.550;2023-02-28T16:26:26;1.52;;;0.98;;
20251;SDS011;10284;58.364;15.550;2023-02-28T16:28:53;1.58;;;0.70;;
20251;SDS011;10284;58.364;15.550;2023-02-28T16:31:18;1.58;;;0.80;;
20251;SDS011;10284;58.364;15.550;2023-02-28T16:33:45;0.80;;;0.68;;
20251;SDS011;10284;58.364;15.550;2023-02-28T16:36:14;0.82;;;0.60;;
20251;SDS011;10284;58.364;15.550;2023-02-28T16:38:43;2.72;;;0.80;;
20251;SDS011;10284;58.364;15.550;2023-02-28T16:41:12;1.27;;;0.65;;
20251;SDS011;10284;58.364;15.550;2023-02-28T16:43:43;1.38;;;0.80;;
20251;SDS011;10284;58.364;15.550;2023-02-28T16:46:10;1.23;;;0.70;;
20251;SDS011;10284;58.364;15.550;2023-02-28T16:48:36;1.38;;;0.80;;
20251;SDS011;10284;58.364;15.550;2023-02-28T16:51:02;2.20;;;0.98;;
20251;SDS011;10284;58.364;15.550;2023-02-28T16:53:29;4.55;;;0.90;;
20251;SDS011;10284;58.364;15.550;2023-02-28T16:55:55;2.22;;;0.70;;
20251;SDS011;10284;58.364;15.550;2023-02-28T16:58:20;2.08;;;0.80;;
20251;SDS011;10284;58.364;15.550;2023-02-28T17:00:48;1.90;;;0.85;;
20251;SDS011;10284;58.364;15.550;2023-02-28T17:08:14;2.03;;;0.73;;
20251;SDS011;10284;58.364;15.550;2023-02-28T17:10:41;1.20;;;0.80;;
20251;SDS011;10284;58.364;15.550;2023-02-28T17:13:06;1.02;;;0.73;;
20251;SDS011;10284;58.364;15.550;2023-02-28T17:15:33;1.95;;;0.82;;